Time;durP1;ratioP1;P1;durP2;ratioP2;P2;SDS_P1;SDS_P2;PMS_P1;PMS_P2;Temp;Humidity;BMP_temperature;BMP_pressure;BME280_temperature;BME280_humidity;BME280_pressure;Samples;Min_cycle;Max_cycle;Signal;HPM_P1;HPM_P2
2023/07/12 00:00:27;;;;;;;3.80;1.10;;;25.70;76.60;;;;;;6226835;23;20412;-85
2023/07/12 00:02:59;;;;;;;1.10;1.00;;;25.70;76.70;;;;;;6225703;23;20412;-84
2023/07/12 00:05:29;;;;;;;1.20;1.10;;;26.00;76.10;;;;;;6199488;23;20779;-83
2023/07/12 00:07:59;;;;;;;3.00;1.20;;;25.90;75.90;;;;;;6192579;23;20730;-83
2023/07/12 00:10:31;;;;;;;1.03;0.93;;;25.80;77.20;;;;;;6212841;23;20409;-83
2023/07/12 00:12:58;;;;;;;1.63;1.23;;;25.70;76.70;;;;;;6210609;23;20437;-82
2023/07/12 00:15:31;;;;;;;1.40;1.30;;;25.70;76.90;;;;;;6181262;23;20409;-82
2023/07/12 00:17:59;;;;;;;1.37;1.13;;;25.70;77.10;;;;;;6184345;23;20456;-84
2023/07/12 00:20:33;;;;;;;1.20;1.10;;;25.60;77.40;;;;;;6208730;23;20871;-84
2023/07/12 00:23:02;;;;;;;2.23;1.60;;;25.70;77.20;;;;;;6182809;23;20412;-83
2023/07/12 00:25:33;;;;;;;2.20;1.20;;;25.70;77.40;;;;;;6183332;23;20436;-82
2023/07/12 00:28:03;;;;;;;1.33;1.23;;;25.60;77.80;;;;;;6211680;23;20460;-83
2023/07/12 00:30:33;;;;;;;1.20;1.10;;;25.60;77.90;;;;;;6181941;23;20389;-84
2023/07/12 00:33:03;;;;;;;1.20;1.10;;;25.70;78.20;;;;;;6183569;23;20413;-84
2023/07/12 00:35:32;;;;;;;1.20;1.00;;;25.70;78.00;;;;;;6205612;23;20437;-82
2023/07/12 00:38:03;;;;;;;1.20;1.10;;;25.70;77.90;;;;;;6180907;23;20496;-83
2023/07/12 00:40:50;;;;;;;2.17;1.50;;;25.60;78.10;;;;;;6189008;23;20409;-82
2023/07/12 00:43:17;;;;;;;1.63;1.00;;;25.50;78.50;;;;;;6213513;23;20875;-84
2023/07/12 00:45:49;;;;;;;1.83;1.00;;;25.50;78.70;;;;;;6212528;23;20416;-83
2023/07/12 00:48:17;;;;;;;1.60;1.10;;;25.50;78.90;;;;;;6213266;23;20435;-83
2023/07/12 00:50:48;;;;;;;1.73;1.17;;;25.50;78.90;;;;;;6186800;23;20408;-83
2023/07/12 00:53:19;;;;;;;0.80;0.80;;;25.50;79.30;;;;;;6185282;23;20409;-83
2023/07/12 00:56:10;;;;;;;2.20;1.50;;;25.50;79.40;;;;;;6212094;23;20406;-83
2023/07/12 00:58:47;;;;;;;1.07;1.00;;;25.50;79.30;;;;;;6212180;23;20465;-80
2023/07/12 01:01:21;;;;;;;2.43;1.10;;;25.40;79.20;;;;;;6208830;23;20413;-82
2023/07/12 01:03:56;;;;;;;1.30;1.20;;;25.40;79.00;;;;;;6184750;23;20417;-83
2023/07/12 01:06:26;;;;;;;2.00;1.10;;;25.40;79.00;;;;;;6209606;23;20404;-81
2023/07/12 01:09:01;;;;;;;1.90;1.20;;;25.40;79.20;;;;;;6210259;23;20401;-83
2023/07/12 01:11:31;;;;;;;1.27;1.13;;;25.30;79.40;;;;;;6181942;23;20413;-83
2023/07/12 01:14:03;;;;;;;1.50;1.30;;;25.30;80.60;;;;;;6183189;23;20413;-83
2023/07/12 01:16:35;;;;;;;1.27;1.13;;;25.40;82.10;;;;;;6208394;23;20471;-84
2023/07/12 01:19:13;;;;;;;1.63;1.07;;;25.30;83.50;;;;;;6181456;23;20448;-83
2023/07/12 01:21:49;;;;;;;1.77;1.40;;;25.30;84.10;;;;;;6207177;23;20423;-83
2023/07/12 01:24:20;;;;;;;1.73;1.30;;;25.40;85.80;;;;;;6181039;23;20444;-82
2023/07/12 01:27:01;;;;;;;1.77;1.40;;;25.40;85.40;;;;;;6182517;23;20508;-83
2023/07/12 01:29:39;;;;;;;4.40;1.47;;;25.40;85.90;;;;;;6182902;23;20409;-82
2023/07/12 01:32:08;;;;;;;1.43;1.23;;;25.30;87.00;;;;;;6184025;23;20745;-82
2023/07/12 01:35:03;;;;;;;2.00;1.40;;;25.20;87.80;;;;;;6182560;23;20397;-84
2023/07/12 01:37:42;;;;;;;1.73;1.13;;;25.20;88.00;;;;;;6199566;23;20460;-82
2023/07/12 01:40:11;;;;;;;1.13;1.03;;;25.10;90.30;;;;;;6207071;23;20407;-81
2023/07/12 01:42:40;;;;;;;2.80;1.30;;;25.10;90.80;;;;;;6218631;23;20405;-81
2023/07/12 01:45:10;;;;;;;2.57;1.27;;;25.00;90.00;;;;;;6230351;23;20443;-82
2023/07/12 01:47:38;;;;;;;1.07;1.00;;;25.00;90.20;;;;;;6232904;23;20508;-81
2023/07/12 01:50:09;;;;;;;1.70;1.60;;;25.00;90.10;;;;;;6205305;23;20401;-82
2023/07/12 01:52:36;;;;;;;1.87;1.30;;;25.00;90.70;;;;;;6192312;23;20464;-84
2023/07/12 01:55:03;;;;;;;1.70;1.10;;;24.90;90.40;;;;;;6192948;23;20463;-83
2023/07/12 01:57:35;;;;;;;1.20;1.07;;;24.90;90.50;;;;;;6194109;23;20445;-81
2023/07/12 02:00:03;;;;;;;2.87;1.43;;;24.70;91.00;;;;;;6217240;23;20405;-82
2023/07/12 02:02:31;;;;;;;2.40;1.30;;;24.70;91.00;;;;;;6191802;23;20945;-80
2023/07/12 02:05:08;;;;;;;2.30;1.20;;;24.80;91.10;;;;;;6196418;23;20440;-81
2023/07/12 02:07:51;;;;;;;3.67;1.57;;;24.70;91.20;;;;;;6203734;23;20409;-81
2023/07/12 02:10:22;;;;;;;2.03;1.30;;;24.70;91.00;;;;;;6208495;23;20408;-82
2023/07/12 02:12:48;;;;;;;16.90;4.57;;;24.60;91.00;;;;;;6231567;23;20396;-83
2023/07/12 02:15:22;;;;;;;4.70;2.03;;;24.60;93.30;;;;;;6193116;23;20425;-83
2023/07/12 02:17:49;;;;;;;5.70;1.97;;;24.50;94.60;;;;;;6212464;23;20440;-82
2023/07/12 02:20:19;;;;;;;1.87;1.67;;;24.60;95.50;;;;;;6213948;23;20870;-84
2023/07/12 02:22:48;;;;;;;1.53;1.30;;;24.40;96.20;;;;;;6217531;23;20394;-83
2023/07/12 02:27:50;;;;;;;1.67;1.50;;;24.10;96.90;;;;;;6216999;23;20448;-82
2023/07/12 02:30:26;;;;;;;1.70;1.50;;;24.00;97.30;;;;;;6222895;23;20412;-82
2023/07/12 02:32:59;;;;;;;6.20;1.53;;;24.10;97.50;;;;;;6185298;23;20748;-82
2023/07/12 02:35:29;;;;;;;2.20;1.60;;;24.10;97.50;;;;;;6183730;23;20413;-82
2023/07/12 02:37:57;;;;;;;1.53;1.43;;;24.10;97.60;;;;;;6186513;23;20448;-82
2023/07/12 02:40:31;;;;;;;1.40;1.30;;;24.10;97.50;;;;;;6189540;23;20408;-82
2023/07/12 02:43:04;;;;;;;1.80;1.27;;;24.10;97.90;;;;;;6199952;23;20393;-83
2023/07/12 02:45:34;;;;;;;1.67;1.40;;;24.10;97.40;;;;;;6205756;23;20406;-83
2023/07/12 02:48:01;;;;;;;1.87;1.43;;;24.10;96.90;;;;;;6203457;23;20441;-82
2023/07/12 02:50:41;;;;;;;2.93;1.67;;;24.10;97.40;;;;;;6205749;23;20420;-83
2023/07/12 02:53:22;;;;;;;2.23;1.57;;;24.00;98.00;;;;;;6206654;23;20416;-83
2023/07/12 02:55:51;;;;;;;1.47;1.37;;;24.10;98.20;;;;;;6206992;23;20381;-83
2023/07/12 02:58:23;;;;;;;1.73;1.30;;;24.10;98.00;;;;;;6205626;23;20445;-85
2023/07/12 03:00:59;;;;;;;2.73;1.70;;;24.00;97.80;;;;;;6204869;23;20408;-82
2023/07/12 03:03:29;;;;;;;2.60;1.73;;;23.90;97.90;;;;;;6231283;23;20396;-82
2023/07/12 03:06:16;;;;;;;2.23;1.30;;;23.90;98.50;;;;;;6231236;23;20724;-83
2023/07/12 03:08:47;;;;;;;3.87;2.00;;;23.90;98.20;;;;;;6203590;23;20439;-82
2023/07/12 03:11:23;;;;;;;1.43;1.33;;;23.80;97.50;;;;;;6225443;23;20397;-84
2023/07/12 03:13:52;;;;;;;1.60;1.47;;;23.80;96.70;;;;;;6180530;23;20486;-84
2023/07/12 03:16:24;;;;;;;1.70;1.33;;;23.60;96.40;;;;;;6198888;23;20609;-83
2023/07/12 03:18:56;;;;;;;3.73;1.47;;;23.50;96.10;;;;;;6170677;23;20503;-83
2023/07/12 03:21:33;;;;;;;3.20;1.70;;;23.50;95.80;;;;;;6178832;23;20400;-82
2023/07/12 03:24:11;;;;;;;2.30;1.47;;;23.30;95.40;;;;;;6157343;23;20496;-81
2023/07/12 03:26:41;;;;;;;1.37;1.27;;;23.30;95.60;;;;;;6187101;23;20499;-82
2023/07/12 03:29:11;;;;;;;1.53;1.40;;;23.20;94.70;;;;;;6187978;23;20424;-84
2023/07/12 03:31:42;;;;;;;1.70;1.13;;;23.00;94.80;;;;;;6213902;23;20405;-82
2023/07/12 03:34:12;;;;;;;2.90;2.03;;;22.90;94.40;;;;;;6188236;23;20420;-82
2023/07/12 03:36:50;;;;;;;4.87;1.53;;;22.90;94.60;;;;;;6183219;23;20459;-83
2023/07/12 03:39:21;;;;;;;2.00;1.20;;;22.90;94.60;;;;;;6183993;23;20855;-82
2023/07/12 03:41:57;;;;;;;1.60;1.50;;;22.80;94.30;;;;;;6209394;23;20413;-83
2023/07/12 03:44:30;;;;;;;1.50;1.10;;;22.80;94.60;;;;;;6181080;23;20417;-83
2023/07/12 03:47:02;;;;;;;1.63;1.00;;;22.80;94.00;;;;;;6179809;23;20440;-81
2023/07/12 03:49:39;;;;;;;1.10;1.00;;;22.80;94.00;;;;;;6190113;23;20401;-79
2023/07/12 03:52:08;;;;;;;1.20;1.10;;;22.80;93.10;;;;;;6189702;23;20405;-83
2023/07/12 03:54:38;;;;;;;4.70;1.10;;;22.70;92.90;;;;;;6186930;23;20436;-83
2023/07/12 03:57:13;;;;;;;2.37;0.90;;;22.70;92.60;;;;;;6216325;23;20455;-81
2023/07/12 03:59:43;;;;;;;1.23;1.13;;;22.60;92.00;;;;;;6211742;23;20493;-82
2023/07/12 04:02:10;;;;;;;2.13;1.10;;;22.60;91.60;;;;;;6187317;23;20456;-81
2023/07/12 04:04:44;;;;;;;2.37;1.20;;;22.60;91.40;;;;;;6188801;23;20412;-83
2023/07/12 04:07:14;;;;;;;3.60;0.90;;;22.60;92.00;;;;;;6189131;23;20429;-83
2023/07/12 04:09:47;;;;;;;2.30;0.97;;;22.70;92.10;;;;;;6190226;23;20510;-83
2023/07/12 04:12:17;;;;;;;1.10;0.90;;;22.70;91.70;;;;;;6195915;23;20416;-83
2023/07/12 04:14:49;;;;;;;1.10;0.90;;;22.70;91.30;;;;;;6196004;23;20424;-82
2023/07/12 04:17:25;;;;;;;1.17;0.80;;;22.70;91.20;;;;;;6177627;23;20428;-84
2023/07/12 04:20:07;;;;;;;1.33;0.60;;;22.70;91.20;;;;;;6186911;23;20431;-83
2023/07/12 04:22:42;;;;;;;1.10;0.77;;;22.80;91.80;;;;;;6217308;23;20404;-84
2023/07/12 04:25:22;;;;;;;1.03;0.80;;;22.80;92.00;;;;;;6211496;23;20436;-84
2023/07/12 04:27:54;;;;;;;1.47;1.00;;;22.70;92.70;;;;;;6183475;23;20439;-83
2023/07/12 04:30:21;;;;;;;1.87;1.20;;;22.70;93.30;;;;;;6212788;23;20433;-84
2023/07/12 04:32:53;;;;;;;1.23;0.80;;;22.80;92.50;;;;;;6187103;23;20409;-82
2023/07/12 04:35:24;;;;;;;0.67;0.67;;;22.80;91.20;;;;;;6183523;23;20532;-84
2023/07/12 04:37:55;;;;;;;1.30;0.90;;;22.80;91.80;;;;;;6187498;23;20429;-83
2023/07/12 04:40:25;;;;;;;0.93;0.70;;;22.80;91.30;;;;;;6186278;23;20488;-84
2023/07/12 04:42:57;;;;;;;2.00;1.03;;;22.80;90.60;;;;;;6215588;23;20476;-83
2023/07/12 04:45:24;;;;;;;0.70;0.70;;;22.60;90.90;;;;;;6187905;23;20417;-83
2023/07/12 04:47:59;;;;;;;1.50;1.03;;;22.40;92.10;;;;;;6190009;23;20500;-85
2023/07/12 04:50:34;;;;;;;1.30;1.03;;;22.60;92.20;;;;;;6192713;23;20400;-85
2023/07/12 04:53:03;;;;;;;1.00;0.90;;;22.60;91.70;;;;;;6215033;23;20796;-82
2023/07/12 04:55:35;;;;;;;0.97;0.70;;;22.40;91.70;;;;;;6189016;23;20466;-83
2023/07/12 04:58:02;;;;;;;2.13;0.93;;;22.10;91.70;;;;;;6215772;23;20513;-83
2023/07/12 05:00:35;;;;;;;1.00;0.90;;;22.00;92.40;;;;;;6193422;23;20428;-83
2023/07/12 05:03:17;;;;;;;1.20;0.83;;;21.90;92.80;;;;;;6197105;23;20422;-82
2023/07/12 05:08:51;;;;;;;0.70;0.70;;;22.10;93.40;;;;;;6208358;23;20517;-82
2023/07/12 05:11:33;;;;;;;1.30;1.03;;;22.40;92.80;;;;;;6209814;23;20413;-81
2023/07/12 05:14:02;;;;;;;1.10;0.90;;;22.20;92.60;;;;;;6214508;23;20424;-81
2023/07/12 05:16:29;;;;;;;0.80;0.70;;;22.10;93.40;;;;;;6214679;23;20492;-83
2023/07/12 05:19:03;;;;;;;2.33;0.90;;;22.10;93.70;;;;;;6191217;23;20458;-83
2023/07/12 05:21:40;;;;;;;1.10;1.00;;;22.00;94.60;;;;;;6188954;23;20400;-82
2023/07/12 05:24:16;;;;;;;2.60;2.10;;;22.20;93.80;;;;;;6230968;23;20396;-83
2023/07/12 05:26:58;;;;;;;1.37;0.80;;;22.00;94.70;;;;;;6202809;23;20417;-85
2023/07/12 05:29:28;;;;;;;0.80;0.80;;;21.90;94.80;;;;;;6208891;23;20401;-82
2023/07/12 05:32:02;;;;;;;1.17;1.00;;;21.80;94.80;;;;;;6208169;23;20395;-81
2023/07/12 05:34:56;;;;;;;2.00;1.20;;;22.10;94.80;;;;;;6202186;23;20415;-81
2023/07/12 05:37:36;;;;;;;2.73;1.83;;;22.10;94.90;;;;;;6192987;23;20444;-84
2023/07/12 05:40:15;;;;;;;1.93;1.13;;;22.00;95.20;;;;;;6193202;23;20421;-83
2023/07/12 05:42:52;;;;;;;3.33;0.97;;;22.30;94.40;;;;;;6191534;23;20452;-84
2023/07/12 05:46:06;;;;;;;1.27;1.10;;;22.00;94.90;;;;;;6189371;23;20487;-82
2023/07/12 05:48:37;;;;;;;1.83;0.90;;;22.00;94.90;;;;;;6218398;23;21339;-83
2023/07/12 05:51:04;;;;;;;1.27;1.03;;;21.90;94.90;;;;;;6197027;23;20849;-81
2023/07/12 05:53:35;;;;;;;1.83;1.07;;;21.90;95.40;;;;;;6223741;23;20413;-81
2023/07/12 05:56:07;;;;;;;1.93;1.07;;;22.10;94.40;;;;;;6199144;23;20419;-81
2023/07/12 05:58:48;;;;;;;2.60;1.70;;;21.90;94.90;;;;;;6221488;23;20440;-82
2023/07/12 06:01:21;;;;;;;1.77;1.10;;;21.90;94.70;;;;;;6194277;23;20420;-83
2023/07/12 06:04:03;;;;;;;0.87;0.87;;;21.80;94.60;;;;;;6195229;23;20412;-83
2023/07/12 06:06:33;;;;;;;5.23;1.43;;;21.80;94.70;;;;;;6226410;23;20743;-82
2023/07/12 06:09:04;;;;;;;1.33;0.90;;;21.90;94.50;;;;;;6203152;23;20895;-82
2023/07/12 06:11:31;;;;;;;0.83;0.80;;;21.90;94.80;;;;;;6201538;23;20409;-83
2023/07/12 06:14:02;;;;;;;1.30;0.83;;;21.90;94.40;;;;;;6207247;23;20453;-83
2023/07/12 06:16:38;;;;;;;4.23;1.20;;;21.90;94.40;;;;;;6206534;23;20440;-81
2023/07/12 06:19:17;;;;;;;1.30;1.20;;;21.90;94.40;;;;;;6205499;23;20424;-84
2023/07/12 06:21:55;;;;;;;1.33;0.90;;;22.00;94.40;;;;;;6231641;23;20544;-81
2023/07/12 06:24:31;;;;;;;1.80;1.40;;;22.10;94.50;;;;;;6228719;23;20398;-82
2023/07/12 06:30:05;;;;;;;2.70;1.23;;;22.50;93.30;;;;;;6214669;23;20455;-82
2023/07/12 06:32:48;;;;;;;1.13;1.03;;;22.50;93.00;;;;;;6188042;23;20475;-81
2023/07/12 06:35:30;;;;;;;1.03;0.93;;;22.50;93.10;;;;;;6174037;23;20419;-81
2023/07/12 06:38:00;;;;;;;6.20;1.30;;;22.60;93.20;;;;;;6207368;23;20432;-82
2023/07/12 06:41:01;;;;;;;0.97;0.80;;;22.60;93.20;;;;;;6180466;23;20794;-84
2023/07/12 06:43:54;;;;;;;1.77;1.07;;;22.70;92.90;;;;;;6182649;23;20416;-83
2023/07/12 06:46:27;;;;;;;2.00;0.90;;;22.60;92.60;;;;;;6182646;23;20520;-83
2023/07/12 06:48:57;;;;;;;1.30;1.10;;;22.50;93.00;;;;;;6180702;23;20417;-83
2023/07/12 06:51:46;;;;;;;1.20;1.00;;;22.60;93.00;;;;;;6185861;23;20411;-81
2023/07/12 06:54:35;;;;;;;1.30;1.00;;;22.60;92.70;;;;;;6183553;23;20436;-82
2023/07/12 06:57:09;;;;;;;2.17;1.30;;;22.70;92.90;;;;;;6207779;23;20472;-83
2023/07/12 06:59:47;;;;;;;1.97;0.90;;;22.70;92.40;;;;;;6178657;23;20472;-81
2023/07/12 07:02:25;;;;;;;1.77;1.37;;;22.70;92.40;;;;;;6188979;23;20411;-82
2023/07/12 07:04:57;;;;;;;3.03;1.07;;;22.70;92.40;;;;;;6211689;23;20409;-83
2023/07/12 07:07:33;;;;;;;3.07;1.67;;;22.50;92.20;;;;;;6186647;23;20432;-81
2023/07/12 07:10:02;;;;;;;1.20;1.10;;;22.40;92.50;;;;;;6205970;23;20447;-83
2023/07/12 07:12:38;;;;;;;1.77;0.90;;;22.40;92.90;;;;;;6185226;23;20412;-82
2023/07/12 07:15:16;;;;;;;1.93;1.47;;;22.40;92.70;;;;;;6184645;23;20419;-81
2023/07/12 07:17:45;;;;;;;2.60;1.03;;;22.30;92.30;;;;;;6212022;23;20421;-84
2023/07/12 07:20:17;;;;;;;1.97;1.17;;;22.40;92.40;;;;;;6186827;23;20456;-83
2023/07/12 07:22:54;;;;;;;0.90;0.80;;;22.40;92.20;;;;;;6183908;23;20415;-82
2023/07/12 07:25:27;;;;;;;2.67;1.00;;;22.30;92.30;;;;;;6186781;23;20417;-83
2023/07/12 07:27:58;;;;;;;2.73;1.10;;;22.30;92.20;;;;;;6187673;23;20494;-83
2023/07/12 07:30:27;;;;;;;1.10;1.00;;;22.40;92.50;;;;;;6188433;23;20475;-82
2023/07/12 07:32:54;;;;;;;1.73;0.80;;;22.40;92.30;;;;;;6188077;23;20483;-83
2023/07/12 07:35:25;;;;;;;2.20;1.60;;;22.40;92.10;;;;;;6217494;23;20405;-82
2023/07/12 07:37:52;;;;;;;1.67;1.00;;;22.40;92.10;;;;;;6186871;23;20528;-83
2023/07/12 07:40:29;;;;;;;1.53;1.07;;;22.40;92.10;;;;;;6216117;23;20447;-84
2023/07/12 07:42:56;;;;;;;1.80;1.03;;;22.50;91.60;;;;;;6190392;23;21002;-83
2023/07/12 07:45:26;;;;;;;1.53;1.13;;;22.40;91.10;;;;;;6190773;23;20447;-83
2023/07/12 08:00:17;;;;;;;1.97;1.43;;;23.20;89.60;;;;;;6015137;23;20518;-81
2023/07/12 08:03:59;;;;;;;;;;;;;;;;;;;;;
2023/07/12 11:34:36;;;;;;;1.87;1.37;;;28.80;48.10;;;;;;5996672;23;20402;-82
2023/07/12 11:38:17;;;;;;;;;;;;;;;;;;;;;
2023/07/12 12:33:20;;;;;;;2.07;0.87;;;29.30;44.90;;;;;;5847076;24;20411;-84
2023/07/12 13:00:44;;;;;;;;;;;;;;;;;;;;;
2023/07/12 13:40:32;;;;;;;;;;;;;;;;;;;;;
2023/07/12 13:55:52;;;;;;;;;;;;;;;;;;;;;
2023/07/12 14:23:38;;;;;;;;;;;;;;;;;;;;;
2023/07/12 14:38:53;;;;;;;;;;;;;;;;;;;;;
2023/07/12 14:42:52;;;;;;;;;;;;;;;;;;;;;
2023/07/12 15:11:24;;;;;;;3.73;1.33;;;28.50;43.20;;;;;;6186662;23;20590;-82
2023/07/12 15:19:20;;;;;;;;;;;;;;;;;;;;;
2023/07/12 17:03:11;;;;;;;;;;;;;;;;;;;;;
2023/07/12 19:06:01;;;;;;;1.73;1.30;;;25.90;47.20;;;;;;5900083;24;20407;-82
2023/07/12 20:04:46;;;;;;;;;;;;;;;;;;;;;
2023/07/12 22:15:35;;;;;;;1.80;1.00;;;23.10;49.70;;;;;;6126804;23;20924;-83
2023/07/12 22:26:48;;;;;;;;;;;;;;;;;;;;;
2023/07/12 22:30:53;;;;;;;;;;;;;;;;;;;;;
2023/07/12 23:00:08;;;;;;;2.97;1.00;;;22.40;52.00;;;;;;6097838;23;20515;-83
2023/07/12 23:11:51;;;;;;;;;;;;;;;;;;;;;
